CYSY

Sachs Harbour (David Nasogaluak Jr. Saaryuaq) Airport

Sachs Harbour, Northwest Territories, Canada
METAR CYSY 181900Z 12009KT 15SM FEW150 M22/M25 A3015 RMK AC2 LAST OBS/NEXT 191400Z SLP225
Observed Flight Rules
Nov-18 @ 19:00 UTC (6 hours ago) Visual Flight Rules
Wind Visibility Clouds
120° at 9 knots 15 miles
  • Few at 15,000' AGL
Temperatures Readings
Current -22°C / -8°F
Dewpoint -25°C / -13°F
Humidity 77%
Altimeter 30.15" Hg
Pressure 1022.5 hPa
Elevation 86
METAR CYSY 181900Z 12009KT 15SM FEW150 M22/M25 A3015 RMK AC2 LAST OBS/NEXT 191400Z SLP225
Observed Flight Rules
Nov-18 @ 19:00 UTC
(6 hours ago)
VFR
Wind Visibility
120° at 9 knots 15 miles
Clouds
  • Few at 15,000' AGL
Temperature Dewpoint
-22°C / -8°F -25°C / -13°F
Humidity Altimeter Pressure
77% 30.15" Hg 1022.5 hPa